SouthEast Lincoln: Weather Underground Data


Davis Vantage Pro Historical Data
 
Daily Summary for September 22, 2017 Units:  English    Metric   Both
« Previous Day
Next Day »
Daily Weekly Monthly Yearly Custom
  Current: High: Low: Average:
Temperature: 95.2 °F 95.2 °F 76.7 °F 83.5 °F
Dew Point: 68.5 °F 72.7 °F 68.5 °F 70.7 °F
Humidity: 42% 78% 42% 67%
Wind Speed: 10.0mph 23.0mph 1.0mph 6.4mph
Wind Gust: 15.0mph 23.0mph - -
Wind:SE - - South
Pressure: 29.74 in 29.77 in 29.73 in -
Precipitation: 0.00 in      
Historical Graphs
 
 
Tabular Data for September 22, 2017
Time Temperature Dew Point Pressure Wind Wind Speed Wind Gust Humidity Rainfall Rate (Hourly) solar
00:01 82.6 °F 72.7 °F 29.73 in WSW 9.0 mph 12.0 mph 72% 0.00 in 0.00 W/m2
00:06 82.5 °F 72.6 °F 29.73 in SSE 9.0 mph 9.0 mph 72% 0.00 in 0.00 W/m2
00:11 82.6 °F 72.7 °F 29.73 in South 4.0 mph 12.0 mph 72% 0.00 in 0.00 W/m2
00:16 82.5 °F 72.6 °F 29.73 in South 4.0 mph 13.0 mph 72% 0.00 in 0.00 W/m2
00:21 82.4 °F 72.5 °F 29.73 in West 23.0 mph 23.0 mph 72% 0.00 in 0.00 W/m2
00:26 82.3 °F 72.4 °F 29.73 in South 10.0 mph 10.0 mph 72% 0.00 in 0.00 W/m2
00:31 82.3 °F 72.4 °F 29.73 in South 2.0 mph 9.0 mph 72% 0.00 in 0.00 W/m2
00:36 82.1 °F 72.2 °F 29.73 in SE 11.0 mph 13.0 mph 72% 0.00 in 0.00 W/m2
00:41 82.0 °F 72.5 °F 29.73 in SSE 5.0 mph 8.0 mph 73% 0.00 in 0.00 W/m2
00:46 82.0 °F 72.5 °F 29.74 in SSW 6.0 mph 10.0 mph 73% 0.00 in 0.00 W/m2
00:51 82.0 °F 72.5 °F 29.74 in South 8.0 mph 8.0 mph 73% 0.00 in 0.00 W/m2
00:56 81.9 °F 72.4 °F 29.74 in South 5.0 mph 11.0 mph 73% 0.00 in 0.00 W/m2
01:01 81.8 °F 72.3 °F 29.74 in SE 2.0 mph 10.0 mph 73% 0.00 in 0.00 W/m2
01:06 81.6 °F 72.1 °F 29.74 in SSE 14.0 mph 14.0 mph 73% 0.00 in 0.00 W/m2
01:11 81.5 °F 72.0 °F 29.74 in SE 4.0 mph 8.0 mph 73% 0.00 in 0.00 W/m2
01:16 81.5 °F 72.0 °F 29.74 in WSW 6.0 mph 9.0 mph 73% 0.00 in 0.00 W/m2
01:21 81.5 °F 72.0 °F 29.74 in SSE 8.0 mph 8.0 mph 73% 0.00 in 0.00 W/m2
01:26 81.4 °F 71.9 °F 29.74 in South 5.0 mph 8.0 mph 73% 0.00 in 0.00 W/m2
01:31 81.3 °F 72.2 °F 29.75 in SE 2.0 mph 8.0 mph 74% 0.00 in 0.00 W/m2
01:36 81.2 °F 72.1 °F 29.75 in SSE 2.0 mph 10.0 mph 74% 0.00 in 0.00 W/m2
01:41 81.1 °F 72.0 °F 29.75 in South 4.0 mph 9.0 mph 74% 0.00 in 0.00 W/m2
01:46 80.9 °F 71.8 °F 29.75 in ESE 6.0 mph 9.0 mph 74% 0.00 in 0.00 W/m2
01:51 80.9 °F 71.8 °F 29.75 in South 7.0 mph 7.0 mph 74% 0.00 in 0.00 W/m2
01:56 80.9 °F 71.8 °F 29.75 in SSE 7.0 mph 9.0 mph 74% 0.00 in 0.00 W/m2
02:01 80.8 °F 71.7 °F 29.75 in SE 7.0 mph 8.0 mph 74% 0.00 in 0.00 W/m2
02:03 80.8 °F 71.7 °F 29.75 in SSE 10.0 mph 12.0 mph 74% 0.00 in 0.00 W/m2
02:08 80.8 °F 71.7 °F 29.75 in SW 6.0 mph 9.0 mph 74% 0.00 in 0.00 W/m2
02:13 80.7 °F 71.7 °F 29.75 in SSE 6.0 mph 7.0 mph 74% 0.00 in 0.00 W/m2
02:18 80.6 °F 71.6 °F 29.75 in SSE 7.0 mph 7.0 mph 74% 0.00 in 0.00 W/m2
02:23 80.5 °F 71.5 °F 29.75 in South 6.0 mph 7.0 mph 74% 0.00 in 0.00 W/m2
02:28 80.5 °F 71.5 °F 29.75 in ESE 9.0 mph 9.0 mph 74% 0.00 in 0.00 W/m2
02:33 80.4 °F 71.4 °F 29.75 in South 7.0 mph 7.0 mph 74% 0.00 in 0.00 W/m2
02:38 80.4 °F 71.4 °F 29.75 in SSE 5.0 mph 6.0 mph 74% 0.00 in 0.00 W/m2
02:43 80.3 °F 71.3 °F 29.75 in SE 6.0 mph 6.0 mph 74% 0.00 in 0.00 W/m2
02:48 80.3 °F 71.3 °F 29.75 in South 6.0 mph 7.0 mph 74% 0.00 in 0.00 W/m2
02:53 80.3 °F 71.3 °F 29.74 in South 3.0 mph 11.0 mph 74% 0.00 in 0.00 W/m2
02:58 80.3 °F 71.3 °F 29.75 in South 7.0 mph 11.0 mph 74% 0.00 in 0.00 W/m2
03:03 80.3 °F 71.3 °F 29.74 in SW 4.0 mph 7.0 mph 74% 0.00 in 0.00 W/m2
03:08 80.3 °F 71.3 °F 29.75 in South 7.0 mph 7.0 mph 74% 0.00 in 0.00 W/m2
03:13 80.3 °F 71.3 °F 29.75 in SSE 4.0 mph 7.0 mph 74% 0.00 in 0.00 W/m2
03:18 80.2 °F 71.2 °F 29.74 in SSE 8.0 mph 8.0 mph 74% 0.00 in 0.00 W/m2
03:23 80.0 °F 71.0 °F 29.74 in South 7.0 mph 7.0 mph 74% 0.00 in 0.00 W/m2
03:28 80.0 °F 71.0 °F 29.74 in SE 4.0 mph 7.0 mph 74% 0.00 in 0.00 W/m2
03:33 79.9 °F 71.3 °F 29.74 in SE 2.0 mph 6.0 mph 75% 0.00 in 0.00 W/m2
03:38 79.8 °F 71.2 °F 29.74 in South 5.0 mph 6.0 mph 75% 0.00 in 0.00 W/m2
03:43 79.7 °F 71.1 °F 29.75 in SW 3.0 mph 6.0 mph 75% 0.00 in 0.00 W/m2
03:48 79.6 °F 71.0 °F 29.75 in SSE 9.0 mph 11.0 mph 75% 0.00 in 0.00 W/m2
03:53 79.5 °F 70.9 °F 29.75 in SE 9.0 mph 9.0 mph 75% 0.00 in 0.00 W/m2
03:58 79.4 °F 70.8 °F 29.75 in SSE 4.0 mph 7.0 mph 75% 0.00 in 0.00 W/m2
04:03 79.3 °F 71.1 °F 29.74 in SSW 5.0 mph 10.0 mph 76% 0.00 in 0.00 W/m2
04:08 79.2 °F 71.0 °F 29.75 in SE 7.0 mph 11.0 mph 76% 0.00 in 0.00 W/m2
04:13 79.1 °F 70.9 °F 29.75 in SSE 5.0 mph 6.0 mph 76% 0.00 in 0.00 W/m2
04:18 79.1 °F 70.9 °F 29.75 in South 8.0 mph 8.0 mph 76% 0.00 in 0.00 W/m2
04:23 79.0 °F 70.8 °F 29.75 in South 5.0 mph 6.0 mph 76% 0.00 in 0.00 W/m2
04:28 78.9 °F 70.7 °F 29.75 in West 4.0 mph 5.0 mph 76% 0.00 in 0.00 W/m2
04:33 78.9 °F 70.7 °F 29.75 in SSE 12.0 mph 12.0 mph 76% 0.00 in 0.00 W/m2
04:38 78.9 °F 70.7 °F 29.75 in SE 4.0 mph 7.0 mph 76% 0.00 in 0.00 W/m2
04:43 78.8 °F 70.6 °F 29.75 in SSE 10.0 mph 10.0 mph 76% 0.00 in 0.00 W/m2
04:48 78.6 °F 70.8 °F 29.75 in ESE 11.0 mph 11.0 mph 77% 0.00 in 0.00 W/m2
04:53 78.5 °F 70.7 °F 29.75 in SSE 6.0 mph 8.0 mph 77% 0.00 in 0.00 W/m2
04:58 78.4 °F 70.6 °F 29.75 in South 1.0 mph 5.0 mph 77% 0.00 in 0.00 W/m2
05:03 78.3 °F 70.5 °F 29.75 in SSE 7.0 mph 9.0 mph 77% 0.00 in 0.00 W/m2
05:08 78.2 °F 70.4 °F 29.75 in SSE 11.0 mph 11.0 mph 77% 0.00 in 0.00 W/m2
05:13 78.0 °F 70.2 °F 29.75 in SE 9.0 mph 9.0 mph 77% 0.00 in 0.00 W/m2
05:18 78.0 °F 70.6 °F 29.75 in SSE 9.0 mph 10.0 mph 78% 0.00 in 0.00 W/m2
05:23 77.9 °F 70.5 °F 29.75 in SSE 6.0 mph 8.0 mph 78% 0.00 in 0.00 W/m2
05:28 77.9 °F 70.5 °F 29.75 in SE 6.0 mph 7.0 mph 78% 0.00 in 0.00 W/m2
05:33 77.7 °F 70.3 °F 29.75 in SSE 8.0 mph 8.0 mph 78% 0.00 in 0.00 W/m2
05:38 77.7 °F 70.3 °F 29.75 in SSE 10.0 mph 10.0 mph 78% 0.00 in 0.00 W/m2
05:43 77.6 °F 70.2 °F 29.75 in SSE 5.0 mph 10.0 mph 78% 0.00 in 0.00 W/m2
05:48 77.5 °F 70.1 °F 29.75 in SE 7.0 mph 9.0 mph 78% 0.00 in 0.00 W/m2
05:53 77.4 °F 70.0 °F 29.75 in SSE 2.0 mph 2.0 mph 78% 0.00 in 0.00 W/m2
05:58 77.4 °F 70.0 °F 29.75 in SE 8.0 mph 11.0 mph 78% 0.00 in 0.00 W/m2
06:03 77.4 °F 70.0 °F 29.75 in SSW 4.0 mph 8.0 mph 78% 0.00 in 0.00 W/m2
06:08 77.3 °F 69.9 °F 29.75 in SSW 4.0 mph 7.0 mph 78% 0.00 in 0.00 W/m2
06:13 77.2 °F 69.8 °F 29.75 in SSE 5.0 mph 6.0 mph 78% 0.00 in 0.00 W/m2
06:18 77.2 °F 69.8 °F 29.75 in SSW 6.0 mph 6.0 mph 78% 0.00 in 0.00 W/m2
06:23 77.1 °F 69.7 °F 29.75 in South 7.0 mph 7.0 mph 78% 0.00 in 0.00 W/m2
06:28 77.1 °F 69.7 °F 29.75 in SE 6.0 mph 10.0 mph 78% 0.00 in 0.00 W/m2
06:33 77.1 °F 69.7 °F 29.75 in SSE 5.0 mph 13.0 mph 78% 0.00 in 0.00 W/m2
06:38 77.1 °F 69.7 °F 29.75 in SSW 4.0 mph 4.0 mph 78% 0.00 in 0.00 W/m2
06:43 77.0 °F 69.6 °F 29.75 in South 4.0 mph 9.0 mph 78% 0.00 in 0.00 W/m2
06:48 77.0 °F 69.6 °F 29.75 in SSE 12.0 mph 13.0 mph 78% 0.00 in 0.00 W/m2
06:53 77.0 °F 69.6 °F 29.75 in SSE 9.0 mph 9.0 mph 78% 0.00 in 0.00 W/m2
06:58 76.9 °F 69.5 °F 29.75 in SE 2.0 mph 7.0 mph 78% 0.00 in 0.00 W/m2
07:03 76.8 °F 69.4 °F 29.75 in SSE 8.0 mph 8.0 mph 78% 0.00 in 0.00 W/m2
07:08 76.7 °F 69.3 °F 29.75 in South 9.0 mph 9.0 mph 78% 0.00 in 0.00 W/m2
07:13 76.7 °F 69.3 °F 29.75 in SSW 3.0 mph 5.0 mph 78% 0.00 in 0.00 W/m2
07:18 76.8 °F 69.4 °F 29.75 in South 11.0 mph 11.0 mph 78% 0.00 in 0.00 W/m2
07:23 76.8 °F 69.4 °F 29.75 in SSE 5.0 mph 6.0 mph 78% 0.00 in 5.00 W/m2
07:28 76.8 °F 69.4 °F 29.75 in SSE 5.0 mph 10.0 mph 78% 0.00 in 9.00 W/m2
07:33 76.7 °F 69.3 °F 29.75 in SE 8.0 mph 8.0 mph 78% 0.00 in 11.00 W/m2
07:38 76.7 °F 69.3 °F 29.75 in South 4.0 mph 9.0 mph 78% 0.00 in 12.00 W/m2
07:43 76.8 °F 69.4 °F 29.75 in SSW 5.0 mph 6.0 mph 78% 0.00 in 19.00 W/m2
07:48 76.7 °F 69.3 °F 29.76 in ESE 8.0 mph 10.0 mph 78% 0.00 in 33.00 W/m2
07:53 76.9 °F 69.5 °F 29.76 in SSW 6.0 mph 6.0 mph 78% 0.00 in 37.00 W/m2
07:58 77.0 °F 69.6 °F 29.75 in SSE 7.0 mph 7.0 mph 78% 0.00 in 47.00 W/m2
08:03 77.1 °F 69.3 °F 29.76 in SSW 5.0 mph 9.0 mph 77% 0.00 in 56.00 W/m2
08:08 77.3 °F 69.5 °F 29.75 in South 5.0 mph 5.0 mph 77% 0.00 in 62.00 W/m2
08:13 77.3 °F 69.5 °F 29.75 in South 5.0 mph 11.0 mph 77% 0.00 in 56.00 W/m2
08:18 77.3 °F 69.5 °F 29.75 in SSE 9.0 mph 9.0 mph 77% 0.00 in 77.00 W/m2
08:23 77.5 °F 69.7 °F 29.75 in SSE 7.0 mph 7.0 mph 77% 0.00 in 118.00 W/m2
08:28 77.8 °F 70.0 °F 29.75 in South 5.0 mph 10.0 mph 77% 0.00 in 120.00 W/m2
08:33 77.9 °F 69.7 °F 29.75 in WSW 7.0 mph 7.0 mph 76% 0.00 in 109.00 W/m2
08:38 78.1 °F 69.9 °F 29.76 in SSE 4.0 mph 13.0 mph 76% 0.00 in 181.00 W/m2
08:43 78.5 °F 69.9 °F 29.75 in SE 5.0 mph 10.0 mph 75% 0.00 in 186.00 W/m2
08:48 78.8 °F 70.2 °F 29.75 in WSW 1.0 mph 6.0 mph 75% 0.00 in 195.00 W/m2
08:53 79.2 °F 70.2 °F 29.75 in West 4.0 mph 6.0 mph 74% 0.00 in 200.00 W/m2
08:58 79.5 °F 70.5 °F 29.75 in SSE 6.0 mph 9.0 mph 74% 0.00 in 211.00 W/m2
09:03 79.6 °F 70.2 °F 29.75 in SSW 4.0 mph 15.0 mph 73% 0.00 in 232.00 W/m2
09:08 79.8 °F 70.4 °F 29.75 in West 5.0 mph 15.0 mph 73% 0.00 in 248.00 W/m2
09:13 80.0 °F 70.2 °F 29.75 in South 8.0 mph 8.0 mph 72% 0.00 in 269.00 W/m2
09:18 80.1 °F 70.3 °F 29.75 in SE 7.0 mph 10.0 mph 72% 0.00 in 288.00 W/m2
09:23 80.4 °F 70.6 °F 29.76 in South 11.0 mph 11.0 mph 72% 0.00 in 304.00 W/m2
09:28 80.6 °F 70.3 °F 29.76 in SE 7.0 mph 10.0 mph 71% 0.00 in 323.00 W/m2
09:33 80.8 °F 70.5 °F 29.76 in South 4.0 mph 13.0 mph 71% 0.00 in 330.00 W/m2
09:38 81.0 °F 70.3 °F 29.76 in SSW 8.0 mph 13.0 mph 70% 0.00 in 348.00 W/m2
09:43 81.4 °F 70.7 °F 29.76 in SSW 7.0 mph 11.0 mph 70% 0.00 in 378.00 W/m2
09:48 81.8 °F 70.6 °F 29.76 in SSE 4.0 mph 10.0 mph 69% 0.00 in 417.00 W/m2
09:53 82.2 °F 70.6 °F 29.76 in SW 4.0 mph 19.0 mph 68% 0.00 in 406.00 W/m2
09:58 82.6 °F 70.5 °F 29.76 in WSW 8.0 mph 13.0 mph 67% 0.00 in 399.00 W/m2
10:03 83.0 °F 71.4 °F 29.76 in South 9.0 mph 10.0 mph 68% 0.00 in 429.00 W/m2
10:08 83.2 °F 70.7 °F 29.76 in SSE 7.0 mph 7.0 mph 66% 0.00 in 431.00 W/m2
10:13 83.8 °F 71.2 °F 29.77 in SSE 5.0 mph 8.0 mph 66% 0.00 in 434.00 W/m2
10:18 84.2 °F 70.7 °F 29.77 in South 6.0 mph 6.0 mph 64% 0.00 in 450.00 W/m2
10:23 84.5 °F 71.0 °F 29.77 in SE 10.0 mph 10.0 mph 64% 0.00 in 459.00 W/m2
10:28 84.8 °F 70.3 °F 29.77 in SSW 5.0 mph 12.0 mph 62% 0.00 in 469.00 W/m2
10:33 85.2 °F 70.7 °F 29.77 in SW 3.0 mph 5.0 mph 62% 0.00 in 480.00 W/m2
10:38 85.7 °F 71.2 °F 29.77 in South 10.0 mph 10.0 mph 62% 0.00 in 490.00 W/m2
10:43 86.0 °F 71.0 °F 29.77 in SSE 5.0 mph 5.0 mph 61% 0.00 in 504.00 W/m2
10:48 86.3 °F 70.8 °F 29.77 in WSW 9.0 mph 9.0 mph 60% 0.00 in 512.00 W/m2
10:53 86.5 °F 71.0 °F 29.77 in SE 6.0 mph 10.0 mph 60% 0.00 in 524.00 W/m2
10:58 86.6 °F 71.1 °F 29.77 in SE 4.0 mph 5.0 mph 60% 0.00 in 538.00 W/m2
11:03 86.9 °F 70.9 °F 29.77 in SSW 6.0 mph 7.0 mph 59% 0.00 in 543.00 W/m2
11:08 87.3 °F 71.2 °F 29.77 in WSW 5.0 mph 5.0 mph 59% 0.00 in 550.00 W/m2
11:13 87.7 °F 71.6 °F 29.77 in SSW 8.0 mph 8.0 mph 59% 0.00 in 557.00 W/m2
11:18 87.9 °F 71.3 °F 29.77 in SE 5.0 mph 5.0 mph 58% 0.00 in 570.00 W/m2
11:19 88.0 °F 71.4 °F 29.77 in SW 2.0 mph 8.0 mph 58% 0.00 in 573.00 W/m2
11:24 88.2 °F 71.6 °F 29.77 in South 5.0 mph 6.0 mph 58% 0.00 in 577.00 W/m2
11:29 88.5 °F 71.8 °F 29.77 in SW 7.0 mph 7.0 mph 58% 0.00 in 591.00 W/m2
11:34 88.7 °F 71.5 °F 29.77 in South 5.0 mph 6.0 mph 57% 0.00 in 592.00 W/m2
11:39 88.9 °F 71.7 °F 29.77 in SSW 4.0 mph 8.0 mph 57% 0.00 in 592.00 W/m2
11:44 89.1 °F 71.9 °F 29.77 in SSE 5.0 mph 7.0 mph 57% 0.00 in 589.00 W/m2
11:49 89.8 °F 71.5 °F 29.77 in South 6.0 mph 10.0 mph 55% 0.00 in 580.00 W/m2
11:54 89.8 °F 70.9 °F 29.76 in SSW 1.0 mph 7.0 mph 54% 0.00 in 554.00 W/m2
11:59 90.0 °F 71.7 °F 29.77 in ESE 7.0 mph 7.0 mph 55% 0.00 in 534.00 W/m2
12:00 90.1 °F 71.8 °F 29.76 in WSW 3.0 mph 5.0 mph 55% 0.00 in 533.00 W/m2
12:05 90.9 °F 71.4 °F 29.76 in SE 2.0 mph 7.0 mph 53% 0.00 in 520.00 W/m2
12:10 91.4 °F 71.3 °F 29.76 in SE 8.0 mph 12.0 mph 52% 0.00 in 496.00 W/m2
12:15 91.1 °F 70.5 °F 29.76 in SE 5.0 mph 5.0 mph 51% 0.00 in 541.00 W/m2
12:20 91.4 °F 71.3 °F 29.76 in SW 7.0 mph 7.0 mph 52% 0.00 in 563.00 W/m2
12:25 91.3 °F 71.2 °F 29.76 in SSW 6.0 mph 6.0 mph 52% 0.00 in 594.00 W/m2
12:30 91.7 °F 71.0 °F 29.76 in SSW 4.0 mph 9.0 mph 51% 0.00 in 606.00 W/m2
12:35 91.4 °F 71.3 °F 29.76 in South 10.0 mph 11.0 mph 52% 0.00 in 640.00 W/m2
12:40 91.2 °F 70.6 °F 29.76 in South 9.0 mph 9.0 mph 51% 0.00 in 650.00 W/m2
12:45 91.7 °F 72.2 °F 29.76 in SSE 8.0 mph 14.0 mph 53% 0.00 in 671.00 W/m2
12:50 91.9 °F 71.2 °F 29.76 in South 5.0 mph 6.0 mph 51% 0.00 in 670.00 W/m2
12:55 92.3 °F 71.6 °F 29.76 in SSE 6.0 mph 13.0 mph 51% 0.00 in 673.00 W/m2
13:00 92.4 °F 71.1 °F 29.76 in South 3.0 mph 7.0 mph 50% 0.00 in 675.00 W/m2
13:05 92.4 °F 71.1 °F 29.76 in South 5.0 mph 10.0 mph 50% 0.00 in 679.00 W/m2
13:10 92.6 °F 71.3 °F 29.76 in SE 6.0 mph 8.0 mph 50% 0.00 in 677.00 W/m2
13:15 92.8 °F 71.4 °F 29.76 in SE 13.0 mph 13.0 mph 50% 0.00 in 675.00 W/m2
13:20 93.0 °F 71.0 °F 29.75 in SSE 6.0 mph 14.0 mph 49% 0.00 in 677.00 W/m2
13:25 93.1 °F 71.7 °F 29.75 in South 10.0 mph 10.0 mph 50% 0.00 in 682.00 W/m2
13:30 93.0 °F 71.0 °F 29.75 in SE 1.0 mph 8.0 mph 49% 0.00 in 679.00 W/m2
13:35 93.3 °F 70.7 °F 29.75 in SE 4.0 mph 8.0 mph 48% 0.00 in 682.00 W/m2
13:40 93.3 °F 70.7 °F 29.74 in SE 11.0 mph 11.0 mph 48% 0.00 in 680.00 W/m2
13:45 93.4 °F 70.2 °F 29.74 in SSE 8.0 mph 12.0 mph 47% 0.00 in 679.00 W/m2
13:50 93.5 °F 70.3 °F 29.74 in SSE 7.0 mph 13.0 mph 47% 0.00 in 679.00 W/m2
13:55 93.5 °F 70.3 °F 29.74 in West 6.0 mph 9.0 mph 47% 0.00 in 671.00 W/m2
14:00 93.8 °F 69.9 °F 29.74 in South 5.0 mph 11.0 mph 46% 0.00 in 668.00 W/m2
14:05 94.0 °F 70.7 °F 29.74 in SE 7.0 mph 8.0 mph 47% 0.00 in 664.00 W/m2
14:10 94.4 °F 69.8 °F 29.74 in SSE 10.0 mph 11.0 mph 45% 0.00 in 666.00 W/m2
14:15 94.7 °F 69.4 °F 29.74 in SSE 6.0 mph 9.0 mph 44% 0.00 in 663.00 W/m2
14:20 94.6 °F 69.3 °F 29.74 in SSW 6.0 mph 13.0 mph 44% 0.00 in 666.00 W/m2
14:25 94.8 °F 69.5 °F 29.74 in SSE 8.0 mph 8.0 mph 44% 0.00 in 659.00 W/m2
14:30 94.9 °F 68.9 °F 29.73 in SSE 11.0 mph 11.0 mph 43% 0.00 in 657.00 W/m2
14:35 95.0 °F 69.0 °F 29.74 in South 5.0 mph 14.0 mph 43% 0.00 in 612.00 W/m2
14:40 94.9 °F 69.6 °F 29.73 in SSE 15.0 mph 15.0 mph 44% 0.00 in 550.00 W/m2
14:45 94.7 °F 68.7 °F 29.74 in South 11.0 mph 15.0 mph 43% 0.00 in 503.00 W/m2
14:47 94.4 °F 68.5 °F 29.74 in East 3.0 mph 15.0 mph 43% 0.00 in 526.00 W/m2
14:52 94.1 °F 69.5 °F 29.74 in West 10.0 mph 10.0 mph 45% 0.00 in 679.00 W/m2
14:57 94.5 °F 69.9 °F 29.74 in East 7.0 mph 8.0 mph 45% 0.00 in 652.00 W/m2
15:02 94.7 °F 69.4 °F 29.74 in WSW 5.0 mph 7.0 mph 44% 0.00 in 492.00 W/m2
15:07 94.7 °F 69.4 °F 29.73 in SSE 4.0 mph 10.0 mph 44% 0.00 in 517.00 W/m2
15:12 94.9 °F 69.6 °F 29.74 in SSE 11.0 mph 11.0 mph 44% 0.00 in 446.00 W/m2
15:17 94.5 °F 68.6 °F 29.73 in SSE 9.0 mph 11.0 mph 43% 0.00 in 612.00 W/m2
15:22 94.9 °F 68.9 °F 29.73 in SE 11.0 mph 16.0 mph 43% 0.00 in 608.00 W/m2
15:27 95.2 °F 68.5 °F 29.74 in SE 10.0 mph 15.0 mph 42% 0.00 in 575.00 W/m2
SouthEast Lincoln Weather
Compliments of Weather Underground - 2 mb